Dong Gui 5 — BMKF — position and weather

sailwx.info

Track history (hours):
 
Tides and Currents Weather Stations Pressure Air Temp Water Temp Dewpoint Dewpoint Depression Visibility Wind Speed Wind Dir Waves Ship Positions

Dong Gui 5

Last reported at 2016-Aug-22 23:31 UTC. Time now 2016-Aug-25 04:28 UTC.
Position N 22°54' E 113°29'.

Length 62 m.

Type: Tanker. MMSI: 412500730.

Date/timePositionNaut miles runAvg speedWind from/ knotsBaromVisibWave heightAir tempDewpointWater temp
2016-Aug-22 23:31N 22°54' E 113°29'5 0.4
2016-Aug-22 11:32N 22°51' E 113°34'0 0.0
2016-Aug-22 10:28N 22°51' E 113°34'0 0.0
2016-Aug-22 09:33N 22°51' E 113°34'0 0.0
2016-Aug-21 22:10N 22°51' E 113°34'0 0.0
2016-Aug-21 21:19N 22°51' E 113°34'0 0.0
2016-Aug-21 20:08N 22°51' E 113°34'0 0.0
2016-Aug-21 16:17N 22°51' E 113°34'0 0.0
2016-Aug-21 13:12N 22°51' E 113°34'0 0.0
2016-Aug-21 12:31N 22°51' E 113°34'2 1.1
2016-Aug-21 11:06N 22°52' E 113°32'  
2016-Aug-17 07:31N 22°55' E 113°26'7 0.3
2016-Aug-16 07:31N 22°56' E 113°33'5 0.5
2016-Aug-15 21:31N 22°52' E 113°33'0 0.0
2016-Aug-15 20:32N 22°52' E 113°33'0 0.0
2016-Aug-15 19:26N 22°52' E 113°33'0 0.0
2016-Aug-15 18:33N 22°52' E 113°33'0 0.0
2016-Aug-15 17:32N 22°52' E 113°33'0 0.0
2016-Aug-15 16:15N 22°52' E 113°33'4 1.5
2016-Aug-15 13:24N 22°54' E 113°30'  
Track history (hours):
 
Tides and Currents Weather Stations Pressure Air Temp Water Temp Dewpoint Dewpoint Depression Visibility Wind Speed Wind Dir Waves Ship Positions

Dong Gui 5

Last reported at 2016-Aug-22 23:31 UTC. Time now 2016-Aug-25 04:28 UTC.
Position N 22°54' E 113°29'.

Length 62 m.

Type: Tanker. MMSI: 412500730.

Date/timePositionNaut miles runAvg speedWind from/ knotsBaromVisibWave heightAir tempDewpointWater temp
2016-Aug-22 23:31N 22°54' E 113°29'5 0.4
2016-Aug-22 11:32N 22°51' E 113°34'0 0.0
2016-Aug-22 10:28N 22°51' E 113°34'0 0.0
2016-Aug-22 09:33N 22°51' E 113°34'0 0.0
2016-Aug-21 22:10N 22°51' E 113°34'0 0.0
2016-Aug-21 21:19N 22°51' E 113°34'0 0.0
2016-Aug-21 20:08N 22°51' E 113°34'0 0.0
2016-Aug-21 16:17N 22°51' E 113°34'0 0.0
2016-Aug-21 13:12N 22°51' E 113°34'0 0.0
2016-Aug-21 12:31N 22°51' E 113°34'2 1.1
2016-Aug-21 11:06N 22°52' E 113°32'  
2016-Aug-17 07:31N 22°55' E 113°26'7 0.3
2016-Aug-16 07:31N 22°56' E 113°33'5 0.5
2016-Aug-15 21:31N 22°52' E 113°33'0 0.0
2016-Aug-15 20:32N 22°52' E 113°33'0 0.0
2016-Aug-15 19:26N 22°52' E 113°33'0 0.0
2016-Aug-15 18:33N 22°52' E 113°33'0 0.0
2016-Aug-15 17:32N 22°52' E 113°33'0 0.0
2016-Aug-15 16:15N 22°52' E 113°33'4 1.5
2016-Aug-15 13:24N 22°54' E 113°30'  

Dump ship's entire track history